sensor_id;sensor_type;location;lat;lon;timestamp;P1;durP1;ratioP1;P2;durP2;ratioP2
23628;SDS011;11991;57.150;-2.134;2023-02-11T00:00:40;0.20;;;0.20;;
23628;SDS011;11991;57.150;-2.134;2023-02-11T00:03:08;0.20;;;0.20;;
23628;SDS011;11991;57.150;-2.134;2023-02-11T00:05:35;0.20;;;0.20;;
23628;SDS011;11991;57.150;-2.134;2023-02-11T00:08:02;0.30;;;0.30;;
23628;SDS011;11991;57.150;-2.134;2023-02-11T00:10:30;0.20;;;0.20;;
23628;SDS011;11991;57.150;-2.134;2023-02-11T00:12:57;0.30;;;0.30;;
23628;SDS011;11991;57.150;-2.134;2023-02-11T00:15:24;0.20;;;0.20;;
23628;SDS011;11991;57.150;-2.134;2023-02-11T00:17:51;0.20;;;0.20;;
23628;SDS011;11991;57.150;-2.134;2023-02-11T00:20:18;0.25;;;0.25;;
23628;SDS011;11991;57.150;-2.134;2023-02-11T00:22:46;0.20;;;0.20;;
23628;SDS011;11991;57.150;-2.134;2023-02-11T00:25:13;0.20;;;0.20;;
23628;SDS011;11991;57.150;-2.134;2023-02-11T00:27:40;0.20;;;0.20;;
23628;SDS011;11991;57.150;-2.134;2023-02-11T00:30:09;0.20;;;0.20;;
23628;SDS011;11991;57.150;-2.134;2023-02-11T00:32:36;0.22;;;0.22;;
23628;SDS011;11991;57.150;-2.134;2023-02-11T00:35:04;0.20;;;0.20;;
23628;SDS011;11991;57.150;-2.134;2023-02-11T00:37:31;0.20;;;0.20;;
23628;SDS011;11991;57.150;-2.134;2023-02-11T00:40:02;0.20;;;0.20;;
23628;SDS011;11991;57.150;-2.134;2023-02-11T00:42:32;0.30;;;0.30;;
23628;SDS011;11991;57.150;-2.134;2023-02-11T00:45:01;0.47;;;0.40;;
23628;SDS011;11991;57.150;-2.134;2023-02-11T00:47:28;0.20;;;0.20;;
23628;SDS011;11991;57.150;-2.134;2023-02-11T00:49:55;0.28;;;0.28;;
23628;SDS011;11991;57.150;-2.134;2023-02-11T00:52:26;0.30;;;0.30;;
23628;SDS011;11991;57.150;-2.134;2023-02-11T00:54:53;0.30;;;0.30;;
23628;SDS011;11991;57.150;-2.134;2023-02-11T00:57:20;0.32;;;0.28;;
23628;SDS011;11991;57.150;-2.134;2023-02-11T00:59:48;0.35;;;0.20;;
23628;SDS011;11991;57.150;-2.134;2023-02-11T01:02:17;0.20;;;0.20;;
23628;SDS011;11991;57.150;-2.134;2023-02-11T01:04:44;0.20;;;0.20;;
23628;SDS011;11991;57.150;-2.134;2023-02-11T01:07:11;0.20;;;0.20;;
23628;SDS011;11991;57.150;-2.134;2023-02-11T01:09:38;0.20;;;0.20;;
23628;SDS011;11991;57.150;-2.134;2023-02-11T01:12:06;0.20;;;0.20;;
23628;SDS011;11991;57.150;-2.134;2023-02-11T01:14:33;0.20;;;0.20;;
23628;SDS011;11991;57.150;-2.134;2023-02-11T01:17:00;0.20;;;0.20;;
23628;SDS011;11991;57.150;-2.134;2023-02-11T01:19:27;0.20;;;0.20;;
23628;SDS011;11991;57.150;-2.134;2023-02-11T01:21:54;0.20;;;0.20;;
23628;SDS011;11991;57.150;-2.134;2023-02-11T01:24:22;0.30;;;0.30;;
23628;SDS011;11991;57.150;-2.134;2023-02-11T01:26:49;0.20;;;0.20;;
23628;SDS011;11991;57.150;-2.134;2023-02-11T01:29:16;0.20;;;0.20;;
23628;SDS011;11991;57.150;-2.134;2023-02-11T01:31:44;0.20;;;0.20;;
23628;SDS011;11991;57.150;-2.134;2023-02-11T01:34:11;0.30;;;0.30;;
23628;SDS011;11991;57.150;-2.134;2023-02-11T01:36:38;0.20;;;0.20;;
23628;SDS011;11991;57.150;-2.134;2023-02-11T01:39:06;0.20;;;0.20;;
23628;SDS011;11991;57.150;-2.134;2023-02-11T01:41:37;0.20;;;0.20;;
23628;SDS011;11991;57.150;-2.134;2023-02-11T01:47:10;0.20;;;0.20;;
23628;SDS011;11991;57.150;-2.134;2023-02-11T01:49:38;0.20;;;0.20;;
23628;SDS011;11991;57.150;-2.134;2023-02-11T01:52:26;0.20;;;0.20;;
23628;SDS011;11991;57.150;-2.134;2023-02-11T01:55:03;0.20;;;0.20;;
23628;SDS011;11991;57.150;-2.134;2023-02-11T01:57:55;0.20;;;0.20;;
23628;SDS011;11991;57.150;-2.134;2023-02-11T02:00:29;0.28;;;0.28;;
23628;SDS011;11991;57.150;-2.134;2023-02-11T02:03:17;0.20;;;0.20;;
23628;SDS011;11991;57.150;-2.134;2023-02-11T02:08:45;0.20;;;0.20;;
23628;SDS011;11991;57.150;-2.134;2023-02-11T02:11:17;0.30;;;0.30;;
23628;SDS011;11991;57.150;-2.134;2023-02-11T02:13:44;0.20;;;0.20;;
23628;SDS011;11991;57.150;-2.134;2023-02-11T02:16:12;0.20;;;0.20;;
23628;SDS011;11991;57.150;-2.134;2023-02-11T02:19:06;0.20;;;0.20;;
23628;SDS011;11991;57.150;-2.134;2023-02-11T02:24:53;0.20;;;0.20;;
23628;SDS011;11991;57.150;-2.134;2023-02-11T02:32:49;0.30;;;0.30;;
23628;SDS011;11991;57.150;-2.134;2023-02-11T02:35:52;0.30;;;0.30;;
23628;SDS011;11991;57.150;-2.134;2023-02-11T02:38:38;0.30;;;0.30;;
23628;SDS011;11991;57.150;-2.134;2023-02-11T02:41:18;0.20;;;0.20;;
23628;SDS011;11991;57.150;-2.134;2023-02-11T02:43:48;0.20;;;0.20;;
23628;SDS011;11991;57.150;-2.134;2023-02-11T02:48:55;0.30;;;0.20;;
23628;SDS011;11991;57.150;-2.134;2023-02-11T03:11:22;0.20;;;0.20;;
23628;SDS011;11991;57.150;-2.134;2023-02-11T03:13:51;0.22;;;0.22;;
23628;SDS011;11991;57.150;-2.134;2023-02-11T03:16:22;0.20;;;0.20;;
23628;SDS011;11991;57.150;-2.134;2023-02-11T03:18:54;0.30;;;0.30;;
23628;SDS011;11991;57.150;-2.134;2023-02-11T03:21:30;0.22;;;0.22;;
23628;SDS011;11991;57.150;-2.134;2023-02-11T03:24:02;0.20;;;0.20;;
23628;SDS011;11991;57.150;-2.134;2023-02-11T03:29:11;0.28;;;0.28;;
23628;SDS011;11991;57.150;-2.134;2023-02-11T03:35:22;0.30;;;0.30;;
23628;SDS011;11991;57.150;-2.134;2023-02-11T03:37:50;0.20;;;0.20;;
23628;SDS011;11991;57.150;-2.134;2023-02-11T03:40:27;0.30;;;0.30;;
23628;SDS011;11991;57.150;-2.134;2023-02-11T03:43:06;0.30;;;0.30;;
23628;SDS011;11991;57.150;-2.134;2023-02-11T03:45:35;0.30;;;0.30;;
23628;SDS011;11991;57.150;-2.134;2023-02-11T03:48:10;0.22;;;0.22;;
23628;SDS011;11991;57.150;-2.134;2023-02-11T03:50:41;0.95;;;0.50;;
23628;SDS011;11991;57.150;-2.134;2023-02-11T03:53:12;0.20;;;0.20;;
23628;SDS011;11991;57.150;-2.134;2023-02-11T03:55:41;0.20;;;0.20;;
23628;SDS011;11991;57.150;-2.134;2023-02-11T03:58:09;0.20;;;0.20;;
23628;SDS011;11991;57.150;-2.134;2023-02-11T04:00:38;0.30;;;0.30;;
23628;SDS011;11991;57.150;-2.134;2023-02-11T04:03:07;0.20;;;0.20;;
23628;SDS011;11991;57.150;-2.134;2023-02-11T04:05:36;0.38;;;0.38;;
23628;SDS011;11991;57.150;-2.134;2023-02-11T04:08:03;0.28;;;0.28;;
23628;SDS011;11991;57.150;-2.134;2023-02-11T04:10:30;0.30;;;0.30;;
23628;SDS011;11991;57.150;-2.134;2023-02-11T04:12:58;0.20;;;0.20;;
23628;SDS011;11991;57.150;-2.134;2023-02-11T04:15:25;0.20;;;0.20;;
23628;SDS011;11991;57.150;-2.134;2023-02-11T04:17:52;0.20;;;0.20;;
23628;SDS011;11991;57.150;-2.134;2023-02-11T04:20:20;0.30;;;0.30;;
23628;SDS011;11991;57.150;-2.134;2023-02-11T04:22:47;0.25;;;0.25;;
23628;SDS011;11991;57.150;-2.134;2023-02-11T04:25:14;0.30;;;0.30;;
23628;SDS011;11991;57.150;-2.134;2023-02-11T04:27:41;0.50;;;0.50;;
23628;SDS011;11991;57.150;-2.134;2023-02-11T04:30:09;0.20;;;0.20;;
23628;SDS011;11991;57.150;-2.134;2023-02-11T04:32:36;0.20;;;0.20;;
23628;SDS011;11991;57.150;-2.134;2023-02-11T04:35:04;0.57;;;0.30;;
23628;SDS011;11991;57.150;-2.134;2023-02-11T04:37:31;0.30;;;0.30;;
23628;SDS011;11991;57.150;-2.134;2023-02-11T04:39:58;0.30;;;0.30;;
23628;SDS011;11991;57.150;-2.134;2023-02-11T04:42:26;0.30;;;0.30;;
23628;SDS011;11991;57.150;-2.134;2023-02-11T04:44:53;0.20;;;0.20;;
23628;SDS011;11991;57.150;-2.134;2023-02-11T04:47:20;0.30;;;0.30;;
23628;SDS011;11991;57.150;-2.134;2023-02-11T04:49:47;0.22;;;0.22;;
23628;SDS011;11991;57.150;-2.134;2023-02-11T04:52:14;0.20;;;0.20;;
23628;SDS011;11991;57.150;-2.134;2023-02-11T04:54:42;0.20;;;0.20;;
23628;SDS011;11991;57.150;-2.134;2023-02-11T04:57:10;0.20;;;0.20;;
23628;SDS011;11991;57.150;-2.134;2023-02-11T04:59:37;0.22;;;0.22;;
23628;SDS011;11991;57.150;-2.134;2023-02-11T05:02:06;0.45;;;0.28;;
23628;SDS011;11991;57.150;-2.134;2023-02-11T05:04:33;0.20;;;0.20;;
23628;SDS011;11991;57.150;-2.134;2023-02-11T05:07:00;0.30;;;0.30;;
23628;SDS011;11991;57.150;-2.134;2023-02-11T05:09:27;0.20;;;0.20;;
23628;SDS011;11991;57.150;-2.134;2023-02-11T05:11:55;0.20;;;0.20;;
23628;SDS011;11991;57.150;-2.134;2023-02-11T05:14:22;0.20;;;0.20;;
23628;SDS011;11991;57.150;-2.134;2023-02-11T05:16:49;0.30;;;0.30;;
23628;SDS011;11991;57.150;-2.134;2023-02-11T05:19:16;0.20;;;0.20;;
23628;SDS011;11991;57.150;-2.134;2023-02-11T05:21:43;0.20;;;0.20;;
23628;SDS011;11991;57.150;-2.134;2023-02-11T05:24:27;0.20;;;0.20;;
23628;SDS011;11991;57.150;-2.134;2023-02-11T05:26:54;0.20;;;0.20;;
23628;SDS011;11991;57.150;-2.134;2023-02-11T05:29:21;0.20;;;0.20;;
23628;SDS011;11991;57.150;-2.134;2023-02-11T05:31:48;0.20;;;0.20;;
23628;SDS011;11991;57.150;-2.134;2023-02-11T05:34:15;0.20;;;0.20;;
23628;SDS011;11991;57.150;-2.134;2023-02-11T05:36:42;0.88;;;0.25;;
23628;SDS011;11991;57.150;-2.134;2023-02-11T05:39:10;0.30;;;0.30;;
23628;SDS011;11991;57.150;-2.134;2023-02-11T05:41:37;0.30;;;0.30;;
23628;SDS011;11991;57.150;-2.134;2023-02-11T05:44:04;0.20;;;0.20;;
23628;SDS011;11991;57.150;-2.134;2023-02-11T05:46:31;0.30;;;0.30;;
23628;SDS011;11991;57.150;-2.134;2023-02-11T05:48:58;0.20;;;0.20;;
23628;SDS011;11991;57.150;-2.134;2023-02-11T05:51:26;0.30;;;0.30;;
23628;SDS011;11991;57.150;-2.134;2023-02-11T05:53:53;0.30;;;0.30;;
23628;SDS011;11991;57.150;-2.134;2023-02-11T05:56:20;0.30;;;0.30;;
23628;SDS011;11991;57.150;-2.134;2023-02-11T05:58:47;0.20;;;0.20;;
23628;SDS011;11991;57.150;-2.134;2023-02-11T06:01:15;0.20;;;0.20;;
23628;SDS011;11991;57.150;-2.134;2023-02-11T06:03:42;0.30;;;0.30;;
23628;SDS011;11991;57.150;-2.134;2023-02-11T06:06:10;0.25;;;0.25;;
23628;SDS011;11991;57.150;-2.134;2023-02-11T06:08:38;0.30;;;0.30;;
23628;SDS011;11991;57.150;-2.134;2023-02-11T06:11:06;0.30;;;0.30;;
23628;SDS011;11991;57.150;-2.134;2023-02-11T06:13:34;0.30;;;0.30;;
23628;SDS011;11991;57.150;-2.134;2023-02-11T06:16:01;0.20;;;0.20;;
23628;SDS011;11991;57.150;-2.134;2023-02-11T06:18:29;0.20;;;0.20;;
23628;SDS011;11991;57.150;-2.134;2023-02-11T06:20:57;0.30;;;0.30;;
23628;SDS011;11991;57.150;-2.134;2023-02-11T06:23:25;0.30;;;0.30;;
23628;SDS011;11991;57.150;-2.134;2023-02-11T06:25:59;0.40;;;0.28;;
23628;SDS011;11991;57.150;-2.134;2023-02-11T06:28:41;0.30;;;0.30;;
23628;SDS011;11991;57.150;-2.134;2023-02-11T06:31:09;0.30;;;0.30;;
23628;SDS011;11991;57.150;-2.134;2023-02-11T06:33:37;0.30;;;0.30;;
23628;SDS011;11991;57.150;-2.134;2023-02-11T06:36:10;0.22;;;0.22;;
23628;SDS011;11991;57.150;-2.134;2023-02-11T06:38:42;0.45;;;0.30;;
23628;SDS011;11991;57.150;-2.134;2023-02-11T06:41:11;0.30;;;0.30;;
23628;SDS011;11991;57.150;-2.134;2023-02-11T06:43:39;0.25;;;0.25;;
23628;SDS011;11991;57.150;-2.134;2023-02-11T06:46:06;0.30;;;0.30;;
23628;SDS011;11991;57.150;-2.134;2023-02-11T06:48:34;0.30;;;0.30;;
23628;SDS011;11991;57.150;-2.134;2023-02-11T06:51:03;0.30;;;0.30;;
23628;SDS011;11991;57.150;-2.134;2023-02-11T06:53:38;0.20;;;0.20;;
23628;SDS011;11991;57.150;-2.134;2023-02-11T06:56:13;0.30;;;0.30;;
23628;SDS011;11991;57.150;-2.134;2023-02-11T06:58:44;0.30;;;0.30;;
23628;SDS011;11991;57.150;-2.134;2023-02-11T07:01:12;0.30;;;0.30;;
23628;SDS011;11991;57.150;-2.134;2023-02-11T07:03:42;0.30;;;0.30;;
23628;SDS011;11991;57.150;-2.134;2023-02-11T07:06:11;0.32;;;0.30;;
23628;SDS011;11991;57.150;-2.134;2023-02-11T07:08:41;0.60;;;0.60;;
23628;SDS011;11991;57.150;-2.134;2023-02-11T07:11:10;0.30;;;0.30;;
23628;SDS011;11991;57.150;-2.134;2023-02-11T07:13:38;0.40;;;0.40;;
23628;SDS011;11991;57.150;-2.134;2023-02-11T07:16:05;0.20;;;0.20;;
23628;SDS011;11991;57.150;-2.134;2023-02-11T07:18:34;0.20;;;0.20;;
23628;SDS011;11991;57.150;-2.134;2023-02-11T07:21:05;0.43;;;0.22;;
23628;SDS011;11991;57.150;-2.134;2023-02-11T07:23:33;0.40;;;0.40;;
23628;SDS011;11991;57.150;-2.134;2023-02-11T07:26:02;0.70;;;0.40;;
23628;SDS011;11991;57.150;-2.134;2023-02-11T07:28:30;0.45;;;0.30;;
23628;SDS011;11991;57.150;-2.134;2023-02-11T07:31:05;0.30;;;0.30;;
23628;SDS011;11991;57.150;-2.134;2023-02-11T07:33:43;0.30;;;0.30;;
23628;SDS011;11991;57.150;-2.134;2023-02-11T07:36:11;0.25;;;0.25;;
23628;SDS011;11991;57.150;-2.134;2023-02-11T07:38:40;0.30;;;0.30;;
23628;SDS011;11991;57.150;-2.134;2023-02-11T07:41:09;0.68;;;0.30;;
23628;SDS011;11991;57.150;-2.134;2023-02-11T07:43:38;0.30;;;0.30;;
23628;SDS011;11991;57.150;-2.134;2023-02-11T07:46:07;0.40;;;0.40;;
23628;SDS011;11991;57.150;-2.134;2023-02-11T07:48:41;0.98;;;0.40;;
23628;SDS011;11991;57.150;-2.134;2023-02-11T07:51:14;0.20;;;0.20;;
23628;SDS011;11991;57.150;-2.134;2023-02-11T07:53:49;0.55;;;0.30;;
23628;SDS011;11991;57.150;-2.134;2023-02-11T07:56:18;0.38;;;0.30;;
23628;SDS011;11991;57.150;-2.134;2023-02-11T07:58:46;0.52;;;0.40;;
23628;SDS011;11991;57.150;-2.134;2023-02-11T08:01:15;0.30;;;0.30;;
23628;SDS011;11991;57.150;-2.134;2023-02-11T08:03:44;0.60;;;0.40;;
23628;SDS011;11991;57.150;-2.134;2023-02-11T08:06:12;0.40;;;0.40;;
23628;SDS011;11991;57.150;-2.134;2023-02-11T08:08:41;0.70;;;0.70;;
23628;SDS011;11991;57.150;-2.134;2023-02-11T08:11:10;0.95;;;0.50;;
23628;SDS011;11991;57.150;-2.134;2023-02-11T08:13:39;0.40;;;0.40;;
23628;SDS011;11991;57.150;-2.134;2023-02-11T08:16:16;0.40;;;0.40;;
23628;SDS011;11991;57.150;-2.134;2023-02-11T08:18:49;0.55;;;0.55;;
23628;SDS011;11991;57.150;-2.134;2023-02-11T08:21:18;0.38;;;0.38;;
23628;SDS011;11991;57.150;-2.134;2023-02-11T08:23:46;0.80;;;0.45;;
23628;SDS011;11991;57.150;-2.134;2023-02-11T08:26:14;0.30;;;0.30;;
23628;SDS011;11991;57.150;-2.134;2023-02-11T08:28:44;0.30;;;0.30;;
23628;SDS011;11991;57.150;-2.134;2023-02-11T08:31:16;0.40;;;0.40;;
23628;SDS011;11991;57.150;-2.134;2023-02-11T08:33:45;0.57;;;0.50;;
23628;SDS011;11991;57.150;-2.134;2023-02-11T08:36:14;1.02;;;0.40;;
23628;SDS011;11991;57.150;-2.134;2023-02-11T08:38:49;1.17;;;0.40;;
23628;SDS011;11991;57.150;-2.134;2023-02-11T08:41:17;0.40;;;0.40;;
23628;SDS011;11991;57.150;-2.134;2023-02-11T08:43:44;0.93;;;0.73;;
23628;SDS011;11991;57.150;-2.134;2023-02-11T08:46:12;0.80;;;0.80;;
23628;SDS011;11991;57.150;-2.134;2023-02-11T08:48:42;1.27;;;0.88;;
23628;SDS011;11991;57.150;-2.134;2023-02-11T08:51:14;5.00;;;3.35;;
23628;SDS011;11991;57.150;-2.134;2023-02-11T08:53:47;8.95;;;5.30;;
23628;SDS011;11991;57.150;-2.134;2023-02-11T08:56:15;5.95;;;2.92;;
23628;SDS011;11991;57.150;-2.134;2023-02-11T08:58:44;1.15;;;1.05;;
23628;SDS011;11991;57.150;-2.134;2023-02-11T09:01:12;0.88;;;0.77;;
23628;SDS011;11991;57.150;-2.134;2023-02-11T09:03:41;0.70;;;0.68;;
23628;SDS011;11991;57.150;-2.134;2023-02-11T09:06:09;0.60;;;0.60;;
23628;SDS011;11991;57.150;-2.134;2023-02-11T09:08:38;0.50;;;0.50;;
23628;SDS011;11991;57.150;-2.134;2023-02-11T09:11:09;0.50;;;0.50;;
23628;SDS011;11991;57.150;-2.134;2023-02-11T09:13:40;1.60;;;1.42;;
23628;SDS011;11991;57.150;-2.134;2023-02-11T09:16:14;2.22;;;1.45;;
23628;SDS011;11991;57.150;-2.134;2023-02-11T09:18:44;0.80;;;0.80;;
23628;SDS011;11991;57.150;-2.134;2023-02-11T09:21:12;0.50;;;0.50;;
23628;SDS011;11991;57.150;-2.134;2023-02-11T09:23:40;0.57;;;0.57;;
23628;SDS011;11991;57.150;-2.134;2023-02-11T09:26:23;0.40;;;0.40;;
23628;SDS011;11991;57.150;-2.134;2023-02-11T09:28:52;1.60;;;1.50;;
23628;SDS011;11991;57.150;-2.134;2023-02-11T09:31:20;0.80;;;0.80;;
23628;SDS011;11991;57.150;-2.134;2023-02-11T09:33:50;0.70;;;0.60;;
23628;SDS011;11991;57.150;-2.134;2023-02-11T09:36:23;0.90;;;0.90;;
23628;SDS011;11991;57.150;-2.134;2023-02-11T09:38:52;0.50;;;0.50;;
23628;SDS011;11991;57.150;-2.134;2023-02-11T09:44:23;1.00;;;0.70;;
23628;SDS011;11991;57.150;-2.134;2023-02-11T09:46:54;1.38;;;1.23;;
23628;SDS011;11991;57.150;-2.134;2023-02-11T09:49:25;2.83;;;1.98;;
23628;SDS011;11991;57.150;-2.134;2023-02-11T09:54:57;0.70;;;0.70;;
23628;SDS011;11991;57.150;-2.134;2023-02-11T09:57:29;0.52;;;0.52;;
23628;SDS011;11991;57.150;-2.134;2023-02-11T10:00:00;0.50;;;0.50;;
23628;SDS011;11991;57.150;-2.134;2023-02-11T10:02:55;0.80;;;0.80;;
23628;SDS011;11991;57.150;-2.134;2023-02-11T10:05:58;0.50;;;0.50;;
23628;SDS011;11991;57.150;-2.134;2023-02-11T10:24:37;0.50;;;0.50;;
23628;SDS011;11991;57.150;-2.134;2023-02-11T10:27:16;0.77;;;0.40;;
23628;SDS011;11991;57.150;-2.134;2023-02-11T10:29:50;0.60;;;0.60;;
23628;SDS011;11991;57.150;-2.134;2023-02-11T10:32:26;0.40;;;0.40;;
23628;SDS011;11991;57.150;-2.134;2023-02-11T10:35:17;0.40;;;0.40;;
23628;SDS011;11991;57.150;-2.134;2023-02-11T10:37:47;0.68;;;0.45;;
23628;SDS011;11991;57.150;-2.134;2023-02-11T10:40:19;0.40;;;0.40;;
23628;SDS011;11991;57.150;-2.134;2023-02-11T10:42:49;0.70;;;0.50;;
23628;SDS011;11991;57.150;-2.134;2023-02-11T10:45:24;1.30;;;0.50;;
23628;SDS011;11991;57.150;-2.134;2023-02-11T10:48:00;0.40;;;0.40;;
23628;SDS011;11991;57.150;-2.134;2023-02-11T10:50:32;0.30;;;0.30;;
23628;SDS011;11991;57.150;-2.134;2023-02-11T10:53:17;0.57;;;0.57;;
23628;SDS011;11991;57.150;-2.134;2023-02-11T10:55:53;0.30;;;0.30;;
23628;SDS011;11991;57.150;-2.134;2023-02-11T10:58:27;0.30;;;0.30;;
23628;SDS011;11991;57.150;-2.134;2023-02-11T11:00:58;0.30;;;0.30;;
23628;SDS011;11991;57.150;-2.134;2023-02-11T11:03:27;0.80;;;0.80;;
23628;SDS011;11991;57.150;-2.134;2023-02-11T11:05:58;0.70;;;0.70;;
23628;SDS011;11991;57.150;-2.134;2023-02-11T11:08:38;0.80;;;0.70;;
23628;SDS011;11991;57.150;-2.134;2023-02-11T11:11:07;0.60;;;0.60;;
23628;SDS011;11991;57.150;-2.134;2023-02-11T11:13:37;0.50;;;0.50;;
23628;SDS011;11991;57.150;-2.134;2023-02-11T11:18:44;0.30;;;0.30;;
23628;SDS011;11991;57.150;-2.134;2023-02-11T11:23:45;0.70;;;0.30;;
23628;SDS011;11991;57.150;-2.134;2023-02-11T11:26:39;0.30;;;0.30;;
23628;SDS011;11991;57.150;-2.134;2023-02-11T11:29:16;0.40;;;0.40;;
23628;SDS011;11991;57.150;-2.134;2023-02-11T11:32:15;0.40;;;0.40;;
23628;SDS011;11991;57.150;-2.134;2023-02-11T11:34:54;0.40;;;0.40;;
23628;SDS011;11991;57.150;-2.134;2023-02-11T11:37:26;0.40;;;0.40;;
23628;SDS011;11991;57.150;-2.134;2023-02-11T11:43:00;0.28;;;0.28;;
23628;SDS011;11991;57.150;-2.134;2023-02-11T11:45:56;1.85;;;0.60;;
23628;SDS011;11991;57.150;-2.134;2023-02-11T11:48:26;0.50;;;0.30;;
23628;SDS011;11991;57.150;-2.134;2023-02-11T11:50:58;0.30;;;0.30;;
23628;SDS011;11991;57.150;-2.134;2023-02-11T11:53:47;0.30;;;0.30;;
23628;SDS011;11991;57.150;-2.134;2023-02-11T11:56:23;0.20;;;0.20;;
23628;SDS011;11991;57.150;-2.134;2023-02-11T11:59:13;0.30;;;0.30;;
23628;SDS011;11991;57.150;-2.134;2023-02-11T12:01:49;0.30;;;0.30;;
23628;SDS011;11991;57.150;-2.134;2023-02-11T12:07:25;1.15;;;0.30;;
23628;SDS011;11991;57.150;-2.134;2023-02-11T12:10:21;0.20;;;0.20;;
23628;SDS011;11991;57.150;-2.134;2023-02-11T12:13:15;0.28;;;0.28;;
23628;SDS011;11991;57.150;-2.134;2023-02-11T12:24:37;0.95;;;0.75;;
23628;SDS011;11991;57.150;-2.134;2023-02-11T12:27:17;0.50;;;0.50;;
23628;SDS011;11991;57.150;-2.134;2023-02-11T12:32:36;0.30;;;0.30;;
23628;SDS011;11991;57.150;-2.134;2023-02-11T12:43:17;0.35;;;0.35;;
23628;SDS011;11991;57.150;-2.134;2023-02-11T12:46:08;0.30;;;0.30;;
23628;SDS011;11991;57.150;-2.134;2023-02-11T12:49:13;1.08;;;0.40;;
23628;SDS011;11991;57.150;-2.134;2023-02-11T12:54:58;0.75;;;0.40;;
23628;SDS011;11991;57.150;-2.134;2023-02-11T12:57:30;0.82;;;0.52;;
23628;SDS011;11991;57.150;-2.134;2023-02-11T13:00:11;0.45;;;0.40;;
23628;SDS011;11991;57.150;-2.134;2023-02-11T13:02:59;1.00;;;0.47;;
23628;SDS011;11991;57.150;-2.134;2023-02-11T13:05:54;0.63;;;0.40;;
23628;SDS011;11991;57.150;-2.134;2023-02-11T13:08:53;0.88;;;0.40;;
23628;SDS011;11991;57.150;-2.134;2023-02-11T13:11:36;0.60;;;0.50;;
23628;SDS011;11991;57.150;-2.134;2023-02-11T13:14:18;0.40;;;0.40;;
23628;SDS011;11991;57.150;-2.134;2023-02-11T13:16:54;0.50;;;0.50;;
23628;SDS011;11991;57.150;-2.134;2023-02-11T13:22:04;0.88;;;0.30;;
23628;SDS011;11991;57.150;-2.134;2023-02-11T13:30:29;0.35;;;0.35;;
23628;SDS011;11991;57.150;-2.134;2023-02-11T13:33:02;0.88;;;0.50;;
23628;SDS011;11991;57.150;-2.134;2023-02-11T13:35:33;0.40;;;0.40;;
23628;SDS011;11991;57.150;-2.134;2023-02-11T13:38:23;0.25;;;0.25;;
23628;SDS011;11991;57.150;-2.134;2023-02-11T13:44:14;1.15;;;0.52;;
23628;SDS011;11991;57.150;-2.134;2023-02-11T13:49:19;1.35;;;0.70;;
23628;SDS011;11991;57.150;-2.134;2023-02-11T13:51:56;0.60;;;0.50;;
23628;SDS011;11991;57.150;-2.134;2023-02-11T13:54:25;0.40;;;0.40;;
23628;SDS011;11991;57.150;-2.134;2023-02-11T13:59:52;0.57;;;0.43;;
23628;SDS011;11991;57.150;-2.134;2023-02-11T14:05:30;0.40;;;0.40;;
23628;SDS011;11991;57.150;-2.134;2023-02-11T14:08:18;0.20;;;0.20;;
23628;SDS011;11991;57.150;-2.134;2023-02-11T14:11:09;0.43;;;0.30;;
23628;SDS011;11991;57.150;-2.134;2023-02-11T14:16:28;0.65;;;0.30;;
23628;SDS011;11991;57.150;-2.134;2023-02-11T14:19:04;0.30;;;0.30;;
23628;SDS011;11991;57.150;-2.134;2023-02-11T14:21:36;0.90;;;0.45;;
23628;SDS011;11991;57.150;-2.134;2023-02-11T14:40:25;0.25;;;0.25;;
23628;SDS011;11991;57.150;-2.134;2023-02-11T14:43:12;0.20;;;0.20;;
23628;SDS011;11991;57.150;-2.134;2023-02-11T14:45:48;0.20;;;0.20;;
23628;SDS011;11991;57.150;-2.134;2023-02-11T14:48:17;0.30;;;0.30;;
23628;SDS011;11991;57.150;-2.134;2023-02-11T14:50:47;0.30;;;0.30;;
23628;SDS011;11991;57.150;-2.134;2023-02-11T14:53:21;0.30;;;0.30;;
23628;SDS011;11991;57.150;-2.134;2023-02-11T14:55:51;0.30;;;0.30;;
23628;SDS011;11991;57.150;-2.134;2023-02-11T14:58:24;0.55;;;0.55;;
23628;SDS011;11991;57.150;-2.134;2023-02-11T15:00:59;0.40;;;0.35;;
23628;SDS011;11991;57.150;-2.134;2023-02-11T15:03:33;0.40;;;0.40;;
23628;SDS011;11991;57.150;-2.134;2023-02-11T15:08:46;0.40;;;0.40;;
23628;SDS011;11991;57.150;-2.134;2023-02-11T15:11:19;0.45;;;0.40;;
23628;SDS011;11991;57.150;-2.134;2023-02-11T15:13:49;0.40;;;0.40;;
23628;SDS011;11991;57.150;-2.134;2023-02-11T15:16:24;0.40;;;0.40;;
23628;SDS011;11991;57.150;-2.134;2023-02-11T15:18:55;0.45;;;0.30;;
23628;SDS011;11991;57.150;-2.134;2023-02-11T15:21:26;0.30;;;0.30;;
23628;SDS011;11991;57.150;-2.134;2023-02-11T15:23:58;1.05;;;0.38;;
23628;SDS011;11991;57.150;-2.134;2023-02-11T15:26:26;0.98;;;0.60;;
23628;SDS011;11991;57.150;-2.134;2023-02-11T15:28:55;0.40;;;0.40;;
23628;SDS011;11991;57.150;-2.134;2023-02-11T15:31:23;0.50;;;0.50;;
23628;SDS011;11991;57.150;-2.134;2023-02-11T15:33:52;0.40;;;0.32;;
23628;SDS011;11991;57.150;-2.134;2023-02-11T15:36:21;0.35;;;0.35;;
23628;SDS011;11991;57.150;-2.134;2023-02-11T15:41:45;0.30;;;0.30;;
23628;SDS011;11991;57.150;-2.134;2023-02-11T15:44:31;1.48;;;0.57;;
23628;SDS011;11991;57.150;-2.134;2023-02-11T15:46:58;0.55;;;0.50;;
23628;SDS011;11991;57.150;-2.134;2023-02-11T15:49:26;0.40;;;0.40;;
23628;SDS011;11991;57.150;-2.134;2023-02-11T15:51:53;5.22;;;0.55;;
23628;SDS011;11991;57.150;-2.134;2023-02-11T15:54:23;0.50;;;0.50;;
23628;SDS011;11991;57.150;-2.134;2023-02-11T15:56:58;0.43;;;0.43;;
23628;SDS011;11991;57.150;-2.134;2023-02-11T16:02:05;1.33;;;0.73;;
23628;SDS011;11991;57.150;-2.134;2023-02-11T16:04:48;0.50;;;0.50;;
23628;SDS011;11991;57.150;-2.134;2023-02-11T16:10:52;1.38;;;0.50;;
23628;SDS011;11991;57.150;-2.134;2023-02-11T16:15:55;0.55;;;0.55;;
23628;SDS011;11991;57.150;-2.134;2023-02-11T16:18:29;0.80;;;0.80;;
23628;SDS011;11991;57.150;-2.134;2023-02-11T16:21:05;1.35;;;0.60;;
23628;SDS011;11991;57.150;-2.134;2023-02-11T16:23:41;0.60;;;0.60;;
23628;SDS011;11991;57.150;-2.134;2023-02-11T16:26:31;2.03;;;1.88;;
23628;SDS011;11991;57.150;-2.134;2023-02-11T16:29:12;0.70;;;0.70;;
23628;SDS011;11991;57.150;-2.134;2023-02-11T16:31:42;1.77;;;1.67;;
23628;SDS011;11991;57.150;-2.134;2023-02-11T16:34:18;1.70;;;1.60;;
23628;SDS011;11991;57.150;-2.134;2023-02-11T16:36:50;2.13;;;1.92;;
23628;SDS011;11991;57.150;-2.134;2023-02-11T16:39:18;2.28;;;1.33;;
23628;SDS011;11991;57.150;-2.134;2023-02-11T16:41:49;0.90;;;0.80;;
23628;SDS011;11991;57.150;-2.134;2023-02-11T16:44:17;0.90;;;0.70;;
23628;SDS011;11991;57.150;-2.134;2023-02-11T16:46:45;1.27;;;0.70;;
23628;SDS011;11991;57.150;-2.134;2023-02-11T16:49:55;1.83;;;0.70;;
23628;SDS011;11991;57.150;-2.134;2023-02-11T16:52:07;1.42;;;0.70;;
23628;SDS011;11991;57.150;-2.134;2023-02-11T16:54:38;1.58;;;1.08;;
23628;SDS011;11991;57.150;-2.134;2023-02-11T16:57:21;8.93;;;5.95;;
23628;SDS011;11991;57.150;-2.134;2023-02-11T16:59:54;3.85;;;2.17;;
23628;SDS011;11991;57.150;-2.134;2023-02-11T17:02:29;2.15;;;1.77;;
23628;SDS011;11991;57.150;-2.134;2023-02-11T17:04:59;1.40;;;1.30;;
23628;SDS011;11991;57.150;-2.134;2023-02-11T17:07:28;2.00;;;1.70;;
23628;SDS011;11991;57.150;-2.134;2023-02-11T17:09:55;2.92;;;1.50;;
23628;SDS011;11991;57.150;-2.134;2023-02-11T17:12:23;1.30;;;1.08;;
23628;SDS011;11991;57.150;-2.134;2023-02-11T17:14:51;1.33;;;0.98;;
23628;SDS011;11991;57.150;-2.134;2023-02-11T17:17:19;1.73;;;1.00;;
23628;SDS011;11991;57.150;-2.134;2023-02-11T17:19:48;0.93;;;0.93;;
23628;SDS011;11991;57.150;-2.134;2023-02-11T17:22:16;0.70;;;0.70;;
23628;SDS011;11991;57.150;-2.134;2023-02-11T17:24:44;0.88;;;0.88;;
23628;SDS011;11991;57.150;-2.134;2023-02-11T17:27:11;0.90;;;0.73;;
23628;SDS011;11991;57.150;-2.134;2023-02-11T17:29:38;0.60;;;0.60;;
23628;SDS011;11991;57.150;-2.134;2023-02-11T17:32:05;1.67;;;0.77;;
23628;SDS011;11991;57.150;-2.134;2023-02-11T17:34:33;1.48;;;0.80;;